Terminal Aerodrome Forecast
Issued by NWS Mt. Holly, NJ

Home | Current Version | Previous Version | Text Only | Print | Product List | Glossary On
Versions: 1 2 3 4 5 6 7 8 9 10 11 12 13 14 15 16 17 18 19
000
FTAK31 PANC 271121
TAFABE
TAF
PABE 271121Z 2712/2812 18008KT 1SM BR OVC002
      TEMPO 2712/2716 1/2SM FG BKN001
     FM272100 24006KT P6SM SCT050 BKN080
     FM280400 28005KT P6SM BKN050=

USA.gov is the U.S. government's official web portal to all federal, state and local government web resources and services.